Time;durP1;ratioP1;P1;durP2;ratioP2;P2;SDS_P1;SDS_P2;PMS_P1;PMS_P2;Temp;Humidity;BMP_temperature;BMP_pressure;BME280_temperature;BME280_humidity;BME280_pressure;Samples;Min_cycle;Max_cycle;Signal;HPM_P1;HPM_P2
2024/04/10 05:01:49;;;;;;;5.63;1.60;;;8.10;90.90;;;;;;4430668;22;20494;-78
2024/04/10 05:06:12;;;;;;;6.68;2.05;;;8.10;90.80;;;;;;4262331;27;20401;-79
2024/04/10 05:08:15;;;;;;;4.53;1.55;;;8.10;91.00;;;;;;4260151;27;20009;-79
2024/04/10 05:10:16;;;;;;;4.43;1.40;;;8.10;90.90;;;;;;4260196;27;20009;-79
2024/04/10 05:12:20;;;;;;;6.18;1.50;;;8.20;90.80;;;;;;4260170;27;20009;-78
2024/04/10 05:14:21;;;;;;;6.50;1.80;;;8.20;90.70;;;;;;4260449;27;20009;-79
2024/04/10 05:16:24;;;;;;;5.93;1.63;;;8.20;90.70;;;;;;4260111;27;20012;-78
2024/04/10 05:18:28;;;;;;;6.63;1.70;;;8.20;91.00;;;;;;4260092;27;20009;-79
2024/04/10 05:20:31;;;;;;;6.10;1.60;;;8.10;91.10;;;;;;4259893;27;20009;-77
2024/04/10 05:22:32;;;;;;;6.53;1.55;;;8.10;91.10;;;;;;4260051;27;20002;-79
2024/04/10 05:24:36;;;;;;;6.43;1.58;;;8.10;91.10;;;;;;4260013;27;20126;-79
2024/04/10 05:26:37;;;;;;;5.53;1.83;;;8.10;91.20;;;;;;4258983;27;20017;-78
2024/04/10 05:28:42;;;;;;;7.00;1.40;;;8.20;91.20;;;;;;4259610;27;20009;-80
2024/04/10 05:30:43;;;;;;;4.90;1.60;;;8.30;91.10;;;;;;4259888;27;20081;-79
2024/04/10 05:32:46;;;;;;;7.35;1.45;;;8.30;90.90;;;;;;4259801;27;20254;-78
2024/04/10 05:34:52;;;;;;;7.88;2.63;;;8.20;90.90;;;;;;4259860;27;20009;-79
2024/04/10 05:36:55;;;;;;;7.65;1.80;;;8.20;91.00;;;;;;4259948;27;20009;-79
2024/04/10 05:39:00;;;;;;;7.05;1.98;;;8.20;91.00;;;;;;4259654;27;20005;-79
2024/04/10 05:41:04;;;;;;;7.80;2.22;;;8.20;91.00;;;;;;4259679;27;20017;-78
2024/04/10 05:43:05;;;;;;;4.90;1.40;;;8.20;91.10;;;;;;4259769;27;20443;-78
2024/04/10 05:45:12;;;;;;;7.07;1.75;;;8.20;91.00;;;;;;4259750;27;20076;-77
2024/04/10 05:47:13;;;;;;;5.70;1.73;;;8.20;91.10;;;;;;4259786;27;20009;-77
2024/04/10 05:49:16;;;;;;;8.90;2.38;;;8.20;91.00;;;;;;4259684;27;20016;-78
2024/04/10 05:51:20;;;;;;;8.30;2.28;;;8.20;91.00;;;;;;4259918;27;20006;-79
2024/04/10 05:53:23;;;;;;;9.57;3.80;;;8.30;91.00;;;;;;4259858;27;20037;-78
2024/04/10 05:55:24;;;;;;;16.55;6.50;;;8.30;91.00;;;;;;4258733;27;20005;-79
2024/04/10 05:57:28;;;;;;;8.43;2.30;;;8.40;91.00;;;;;;4259732;27;20041;-79
2024/04/10 05:59:29;;;;;;;5.20;1.85;;;8.40;90.80;;;;;;4259708;27;20005;-79
2024/04/10 06:01:32;;;;;;;7.22;1.75;;;8.50;90.80;;;;;;4259450;27;20020;-79
2024/04/10 06:03:33;;;;;;;6.03;1.80;;;8.50;90.60;;;;;;4259506;27;20005;-79
2024/04/10 06:05:37;;;;;;;6.53;2.10;;;8.50;90.80;;;;;;4259694;27;20009;-78
2024/04/10 06:07:42;;;;;;;5.47;1.55;;;8.50;90.90;;;;;;4259545;27;20009;-78
2024/04/10 06:09:45;;;;;;;4.70;1.80;;;8.40;90.80;;;;;;4259613;27;20005;-78
2024/04/10 06:11:46;;;;;;;6.20;1.85;;;8.40;91.10;;;;;;4259561;27;20001;-79
2024/04/10 06:13:52;;;;;;;7.18;1.80;;;8.40;90.90;;;;;;4259343;27;20454;-78
2024/04/10 06:15:58;;;;;;;7.90;2.13;;;8.50;90.90;;;;;;4259602;27;20017;-78
2024/04/10 06:18:01;;;;;;;;;;;8.50;90.90;;;;;;4259969;27;20054;-79
2024/04/10 06:20:05;;;;;;;4.93;1.73;;;8.50;90.90;;;;;;4259415;27;20000;-80
2024/04/10 06:22:08;;;;;;;6.05;1.50;;;8.50;90.70;;;;;;4259285;27;20017;-78
2024/04/10 06:24:13;;;;;;;7.30;1.80;;;8.60;90.80;;;;;;4259299;27;20001;-79
2024/04/10 06:26:17;;;;;;;6.35;1.42;;;8.60;90.60;;;;;;4259130;27;20002;-79
2024/04/10 06:28:18;;;;;;;6.72;1.60;;;8.70;90.60;;;;;;4259178;27;20321;-79
2024/04/10 06:30:22;;;;;;;6.13;1.60;;;8.60;90.70;;;;;;4259133;27;20020;-78
2024/04/10 06:32:23;;;;;;;6.03;1.42;;;8.60;90.60;;;;;;4258677;27;20009;-78
2024/04/10 06:34:26;;;;;;;9.80;2.40;;;8.50;90.80;;;;;;4258804;27;20458;-78
2024/04/10 06:36:28;;;;;;;5.78;1.58;;;8.60;90.80;;;;;;4259095;27;20005;-79
2024/04/10 06:38:31;;;;;;;7.55;1.70;;;8.60;90.70;;;;;;4258998;27;20511;-79
2024/04/10 06:40:36;;;;;;;5.50;1.83;;;8.60;90.50;;;;;;4259290;27;20020;-79
2024/04/10 06:42:39;;;;;;;5.32;1.90;;;8.70;90.50;;;;;;4259330;27;20485;-79
2024/04/10 06:44:40;;;;;;;9.15;2.80;;;8.80;90.50;;;;;;4259263;27;20005;-79
2024/04/10 06:46:44;;;;;;;9.48;2.95;;;8.90;90.40;;;;;;4259144;27;20009;-79
2024/04/10 06:48:45;;;;;;;5.95;1.80;;;8.90;90.20;;;;;;4258993;27;20012;-79
2024/04/10 06:50:49;;;;;;;7.95;1.95;;;8.90;90.10;;;;;;4259060;27;20029;-79
2024/04/10 06:52:50;;;;;;;6.55;1.77;;;8.80;90.00;;;;;;4258986;27;20451;-79
2024/04/10 06:54:53;;;;;;;5.10;1.48;;;8.90;90.20;;;;;;4256036;27;20028;-79
2024/04/10 06:56:57;;;;;;;5.85;1.67;;;8.90;90.10;;;;;;4258981;27;20001;-79
2024/04/10 06:59:01;;;;;;;7.93;1.42;;;9.00;90.00;;;;;;4258931;27;20009;-79
2024/04/10 07:01:04;;;;;;;7.50;1.90;;;9.00;89.70;;;;;;4258790;27;20016;-80
2024/04/10 07:03:08;;;;;;;6.32;1.85;;;9.00;89.30;;;;;;4258537;27;20024;-79
2024/04/10 07:05:09;;;;;;;7.28;2.00;;;9.00;88.50;;;;;;4258970;27;20005;-80
2024/04/10 07:07:13;;;;;;;8.85;2.05;;;9.00;88.80;;;;;;4258845;27;20020;-79
2024/04/10 07:09:14;;;;;;;6.63;1.77;;;9.10;89.20;;;;;;4258797;27;20007;-78
2024/04/10 07:11:20;;;;;;;7.05;1.80;;;9.10;89.30;;;;;;4258988;27;20486;-79
2024/04/10 07:13:25;;;;;;;5.50;1.55;;;9.10;88.90;;;;;;4259096;27;20012;-79
2024/04/10 07:15:29;;;;;;;7.65;2.13;;;9.10;88.30;;;;;;4258745;27;20020;-80
2024/04/10 07:17:30;;;;;;;7.20;1.88;;;9.10;88.20;;;;;;4258372;27;20352;-80
2024/04/10 07:19:35;;;;;;;7.13;2.00;;;9.20;88.50;;;;;;4258858;27;20147;-79
2024/04/10 07:21:35;;;;;;;6.38;1.65;;;9.00;88.50;;;;;;4251602;27;20022;-75
2024/04/10 07:23:41;;;;;;;6.07;1.80;;;9.00;88.80;;;;;;4232800;27;20009;-80
2024/04/10 07:25:42;;;;;;;8.57;1.90;;;9.00;88.50;;;;;;4232425;27;20345;-81
2024/04/10 07:27:45;;;;;;;11.38;1.83;;;8.90;89.30;;;;;;4231810;27;20030;-79
2024/04/10 07:29:51;;;;;;;8.05;1.98;;;8.80;88.30;;;;;;4232179;27;20021;-79
2024/04/10 07:31:54;;;;;;;9.25;1.98;;;8.80;88.60;;;;;;4232037;27;20006;-79
2024/04/10 07:33:56;;;;;;;8.73;1.90;;;8.90;88.10;;;;;;4232230;27;20016;-80
2024/04/10 07:36:00;;;;;;;6.00;1.65;;;8.90;88.30;;;;;;4232024;27;20005;-79
2024/04/10 07:38:01;;;;;;;7.35;1.60;;;9.10;88.40;;;;;;4232411;27;20002;-79
2024/04/10 07:40:05;;;;;;;7.78;1.73;;;9.10;88.30;;;;;;4232157;27;20013;-79
2024/04/10 07:42:06;;;;;;;9.25;1.90;;;9.10;87.90;;;;;;4232001;27;20336;-79
2024/04/10 07:44:10;;;;;;;9.75;1.92;;;9.10;88.90;;;;;;4231946;27;20006;-79
2024/04/10 07:46:15;;;;;;;5.78;1.60;;;9.10;88.10;;;;;;4232135;27;20010;-79
2024/04/10 07:48:19;;;;;;;8.68;1.80;;;9.20;89.30;;;;;;4231888;27;20017;-79
2024/04/10 07:50:20;;;;;;;10.88;2.42;;;9.20;86.80;;;;;;4246052;27;20098;-79
2024/04/10 07:52:23;;;;;;;8.88;1.90;;;9.20;85.80;;;;;;4258358;27;20499;-80
2024/04/10 07:54:24;;;;;;;9.43;2.03;;;9.30;86.20;;;;;;4258021;27;20466;-79
2024/04/10 07:56:29;;;;;;;12.75;2.15;;;9.30;85.90;;;;;;4258307;27;20013;-79
2024/04/10 07:58:31;;;;;;;14.75;2.10;;;9.30;86.80;;;;;;4257981;27;20088;-79
2024/04/10 08:00:32;;;;;;;11.20;2.00;;;9.20;85.20;;;;;;4257966;27;20159;-78
2024/04/10 08:02:38;;;;;;;9.23;1.70;;;9.20;84.40;;;;;;4258324;27;20084;-79
2024/04/10 08:04:39;;;;;;;;;;;9.20;84.80;;;;;;4258827;27;20447;-79
2024/04/10 08:06:43;;;;;;;11.60;2.28;;;9.30;82.90;;;;;;4248379;27;19930;-79
2024/04/10 08:08:43;;;;;;;10.02;1.83;;;9.30;82.50;;;;;;4231144;27;20103;-79
2024/04/10 08:10:48;;;;;;;14.43;1.83;;;9.40;82.70;;;;;;4231719;27;20049;-79
2024/04/10 08:12:49;;;;;;;9.73;1.88;;;9.50;82.30;;;;;;4231860;27;20025;-79
2024/04/10 08:14:54;;;;;;;8.32;1.98;;;9.50;82.60;;;;;;4231624;27;20360;-80
2024/04/10 08:16:55;;;;;;;11.23;2.08;;;9.40;81.80;;;;;;4231629;27;20021;-79
2024/04/10 08:19:02;;;;;;;10.88;2.00;;;9.30;82.40;;;;;;4254055;27;20009;-79
2024/04/10 08:21:05;;;;;;;15.02;2.00;;;9.50;82.90;;;;;;4258191;27;20013;-79
2024/04/10 08:23:09;;;;;;;8.50;1.73;;;9.60;82.80;;;;;;4257811;27;20077;-79
2024/04/10 08:25:10;;;;;;;12.60;2.40;;;9.60;82.10;;;;;;4257970;27;20463;-76
2024/04/10 08:27:13;;;;;;;7.00;1.67;;;9.60;82.40;;;;;;4257879;27;20037;-78
2024/04/10 08:29:14;;;;;;;11.13;2.33;;;9.70;81.20;;;;;;4258010;27;20001;-78
2024/04/10 08:31:21;;;;;;;12.82;1.92;;;9.70;81.80;;;;;;4257717;27;20021;-79
2024/04/10 08:33:22;;;;;;;9.68;2.00;;;9.70;81.30;;;;;;4257959;27;20470;-78
2024/04/10 08:35:28;;;;;;;11.27;2.15;;;9.70;81.30;;;;;;4257769;27;20443;-79
2024/04/10 08:37:29;;;;;;;;;;;9.80;82.10;;;;;;4258439;27;20443;-78
2024/04/10 08:39:33;;;;;;;10.00;2.42;;;9.90;81.10;;;;;;4257825;27;19929;-79
2024/04/10 08:41:34;;;;;;;12.10;2.55;;;9.80;81.90;;;;;;4257741;27;20005;-79
2024/04/10 08:43:37;;;;;;;13.20;2.78;;;9.90;78.50;;;;;;4257692;27;20052;-78
2024/04/10 08:45:41;;;;;;;10.63;1.98;;;9.80;78.00;;;;;;4252560;27;20022;-79
2024/04/10 08:47:42;;;;;;;10.65;2.08;;;9.90;78.20;;;;;;4231209;28;20017;-78
2024/04/10 08:49:46;;;;;;;13.65;2.40;;;9.90;79.20;;;;;;4231293;27;20006;-79
2024/04/10 08:51:50;;;;;;;11.95;1.85;;;9.90;77.30;;;;;;4231185;27;20460;-79
2024/04/10 08:53:54;;;;;;;12.98;2.33;;;9.80;76.20;;;;;;4231392;27;20340;-80
2024/04/10 08:55:56;;;;;;;8.82;1.67;;;9.90;77.00;;;;;;4231374;27;20333;-79
2024/04/10 08:57:57;;;;;;;11.90;2.13;;;9.90;76.60;;;;;;4229585;28;20090;-78
2024/04/10 09:00:01;;;;;;;9.45;2.00;;;9.90;78.20;;;;;;4231141;27;20025;-78
2024/04/10 09:02:02;;;;;;;9.95;2.00;;;9.90;77.90;;;;;;4258223;27;20013;-79
2024/04/10 09:04:08;;;;;;;12.27;2.33;;;9.80;76.80;;;;;;4259805;27;20031;-78
2024/04/10 09:06:09;;;;;;;10.18;1.88;;;9.80;75.70;;;;;;4259990;27;20009;-79
2024/04/10 09:08:15;;;;;;;12.10;1.90;;;10.00;76.20;;;;;;4259835;27;20009;-77
2024/04/10 09:10:16;;;;;;;11.02;1.95;;;10.20;76.40;;;;;;4259662;27;20024;-77
2024/04/10 09:12:26;;;;;;;8.38;2.08;;;10.30;76.20;;;;;;4259813;27;20476;-78
2024/04/10 09:14:27;;;;;;;14.30;2.10;;;10.40;76.30;;;;;;4244297;27;20025;-79
2024/04/10 09:16:31;;;;;;;10.25;1.77;;;10.30;74.60;;;;;;4239711;27;20013;-79
2024/04/10 09:18:32;;;;;;;13.60;2.40;;;10.10;75.10;;;;;;4232982;27;20495;-79
2024/04/10 09:20:36;;;;;;;11.38;1.90;;;10.30;74.40;;;;;;4233290;27;20050;-79
2024/04/10 09:22:37;;;;;;;10.85;2.00;;;10.50;73.90;;;;;;4232846;27;20014;-80
2024/04/10 09:24:43;;;;;;;11.35;2.45;;;10.60;72.70;;;;;;4233433;27;20537;-78
2024/04/10 09:26:48;;;;;;;;;;;10.60;72.40;;;;;;4233888;27;20111;-80
2024/04/10 09:28:51;;;;;;;7.60;1.83;;;10.60;73.10;;;;;;4232995;28;19937;-79
2024/04/10 09:30:57;;;;;;;8.68;1.88;;;10.70;72.20;;;;;;4232903;27;20014;-78
2024/04/10 09:33:02;;;;;;;11.90;1.95;;;10.80;71.90;;;;;;4233056;28;20476;-80
2024/04/10 09:35:05;;;;;;;8.32;1.70;;;10.90;71.80;;;;;;4232806;27;20401;-79
2024/04/10 09:37:12;;;;;;;12.13;2.15;;;11.10;71.50;;;;;;4233212;27;20042;-80
2024/04/10 09:39:22;;;;;;;12.98;1.88;;;11.10;69.70;;;;;;4232883;27;20020;-78
2024/04/10 09:41:31;;;;;;;15.13;2.05;;;11.20;69.40;;;;;;4233487;27;20010;-79
2024/04/10 09:43:32;;;;;;;11.77;2.10;;;11.30;67.80;;;;;;4232734;27;20038;-77
2024/04/10 09:45:37;;;;;;;9.70;1.98;;;11.10;67.20;;;;;;4232615;28;20028;-79
2024/04/10 09:47:41;;;;;;;13.02;1.83;;;11.20;66.80;;;;;;4233542;27;20468;-78
2024/04/10 09:49:51;;;;;;;8.95;1.85;;;11.20;66.90;;;;;;4232805;28;20516;-80
2024/04/10 09:51:56;;;;;;;8.60;1.55;;;11.20;66.70;;;;;;4232898;28;20459;-81
2024/04/10 09:54:01;;;;;;;10.45;2.38;;;11.10;66.60;;;;;;4233421;27;20014;-80
2024/04/10 09:56:04;;;;;;;9.35;2.00;;;11.20;66.50;;;;;;4257398;27;20308;-81
2024/04/10 09:58:13;;;;;;;13.25;1.80;;;11.00;65.50;;;;;;4256919;27;20013;-78
2024/04/10 10:00:14;;;;;;;10.38;1.92;;;11.00;65.30;;;;;;4257000;27;20020;-79
2024/04/10 10:02:20;;;;;;;12.20;1.70;;;11.20;65.90;;;;;;4256948;27;20045;-81
2024/04/10 10:04:21;;;;;;;7.95;1.65;;;11.40;66.00;;;;;;4257486;27;20117;-80
2024/04/10 10:06:30;;;;;;;8.25;1.73;;;11.70;65.30;;;;;;4259772;27;20025;-80
2024/04/10 10:08:32;;;;;;;7.53;1.80;;;11.90;64.30;;;;;;4261627;27;20072;-78
2024/04/10 10:10:49;;;;;;;11.02;1.88;;;12.10;63.90;;;;;;4256422;27;20463;-79
2024/04/10 10:12:50;;;;;;;8.43;1.75;;;12.10;60.80;;;;;;4253337;27;20087;-78
2024/04/10 10:14:56;;;;;;;7.55;1.58;;;11.90;60.00;;;;;;4245842;27;20028;-78
2024/04/10 10:17:07;;;;;;;8.95;1.85;;;11.90;61.40;;;;;;4228298;28;20006;-80
2024/04/10 10:19:24;;;;;;;7.07;1.85;;;12.00;61.50;;;;;;4230699;28;20010;-81
2024/04/10 10:21:27;;;;;;;9.63;1.98;;;12.00;60.90;;;;;;4231484;28;20088;-79
2024/04/10 10:23:30;;;;;;;8.27;1.95;;;12.00;60.00;;;;;;4231857;28;20531;-79
2024/04/10 10:25:31;;;;;;;8.55;1.77;;;12.10;60.20;;;;;;4231697;28;20018;-77
2024/04/10 10:27:35;;;;;;;9.23;1.90;;;12.20;60.10;;;;;;4230841;27;20010;-77
2024/04/10 10:29:36;;;;;;;9.48;1.75;;;12.20;60.20;;;;;;4230756;28;20354;-78
2024/04/10 10:31:42;;;;;;;8.73;1.88;;;12.10;59.80;;;;;;4230875;28;20014;-78
2024/04/10 10:33:43;;;;;;;8.32;1.90;;;12.30;60.00;;;;;;4230886;28;20057;-79
2024/04/10 10:35:44;;;;;;;8.75;1.92;;;12.40;59.70;;;;;;4231232;28;20440;-80
2024/04/10 10:37:48;;;;;;;12.18;1.83;;;12.50;59.60;;;;;;4257381;27;20009;-77
2024/04/10 10:39:51;;;;;;;8.02;1.60;;;12.60;59.20;;;;;;4257968;27;20455;-77
2024/04/10 10:42:02;;;;;;;12.45;1.70;;;12.70;59.90;;;;;;4258036;27;20390;-76
2024/04/10 10:44:04;;;;;;;9.32;2.00;;;12.80;59.20;;;;;;4258608;27;20016;-79
2024/04/10 10:46:08;;;;;;;6.47;1.58;;;12.90;59.20;;;;;;4260318;27;20009;-80
2024/04/10 10:48:15;;;;;;;11.25;2.33;;;13.00;58.70;;;;;;4264259;27;20454;-79
2024/04/10 10:50:19;;;;;;;7.35;1.67;;;13.20;60.30;;;;;;4261931;27;20106;-80
2024/04/10 10:52:21;;;;;;;7.07;1.63;;;13.20;59.70;;;;;;4261421;27;20007;-79
2024/04/10 10:54:25;;;;;;;10.13;1.85;;;13.10;58.70;;;;;;4260980;27;20508;-79
2024/04/10 10:56:27;;;;;;;10.75;2.38;;;13.10;57.90;;;;;;4259965;27;20454;-79
2024/04/10 10:58:30;;;;;;;10.50;2.17;;;13.10;57.70;;;;;;4259180;27;20045;-78
2024/04/10 11:00:33;;;;;;;11.68;2.05;;;13.10;58.30;;;;;;4262031;27;20058;-79
2024/04/10 11:02:36;;;;;;;8.07;2.00;;;13.20;58.10;;;;;;4260487;27;20093;-78
2024/04/10 11:04:40;;;;;;;8.18;2.00;;;13.30;58.80;;;;;;4257877;27;20300;-79
2024/04/10 11:06:44;;;;;;;8.48;2.00;;;13.30;58.40;;;;;;4257038;27;20020;-78
2024/04/10 11:08:45;;;;;;;6.93;1.48;;;13.40;59.40;;;;;;4257704;27;20005;-78
2024/04/10 11:10:49;;;;;;;10.98;1.80;;;13.50;60.20;;;;;;4232897;27;20058;-83
2024/04/10 11:12:58;;;;;;;12.57;2.00;;;13.70;59.30;;;;;;4228240;28;20025;-81
2024/04/10 11:15:10;;;;;;;9.00;1.60;;;13.70;57.10;;;;;;4231332;28;20033;-80
2024/04/10 11:17:19;;;;;;;7.07;1.85;;;13.80;57.30;;;;;;4231017;28;20329;-82
2024/04/10 11:19:23;;;;;;;8.18;1.80;;;13.90;56.50;;;;;;4230777;27;20542;-78
2024/04/10 11:21:27;;;;;;;8.45;1.73;;;14.10;56.40;;;;;;4230817;28;20448;-85
2024/04/10 11:23:30;;;;;;;8.65;1.92;;;14.10;55.70;;;;;;4231012;27;20006;-81
2024/04/10 11:25:31;;;;;;;9.25;1.67;;;14.20;56.80;;;;;;4229129;28;20006;-83
2024/04/10 11:27:35;;;;;;;7.63;1.73;;;14.30;57.40;;;;;;4254312;27;20013;-84
2024/04/10 11:29:36;;;;;;;11.63;2.00;;;14.40;57.90;;;;;;4257321;27;20017;-82
2024/04/10 11:31:41;;;;;;;12.82;2.10;;;14.50;56.70;;;;;;4257111;27;20408;-82
2024/04/10 11:33:42;;;;;;;8.23;1.73;;;14.50;55.80;;;;;;4257302;27;20067;-82
2024/04/10 11:35:46;;;;;;;7.43;1.85;;;14.50;55.80;;;;;;4256728;27;20008;-79
2024/04/10 11:37:53;;;;;;;9.95;2.13;;;14.50;55.60;;;;;;4256511;27;20005;-78
2024/04/10 11:39:56;;;;;;;7.05;1.90;;;14.50;55.50;;;;;;4256801;27;20016;-80
2024/04/10 11:41:58;;;;;;;8.00;1.70;;;14.50;55.60;;;;;;4254013;27;20022;-81
2024/04/10 11:45:35;;;;;;;10.38;2.63;;;14.30;54.40;;;;;;4527142;25;20317;-74
2024/04/10 11:47:37;;;;;;;6.65;1.70;;;14.40;55.50;;;;;;4495760;26;20000;-75
2024/04/10 11:49:45;;;;;;;6.25;1.90;;;14.40;55.10;;;;;;4495715;26;20018;-74
2024/04/10 11:51:45;;;;;;;9.90;1.60;;;14.50;54.90;;;;;;4495454;26;20010;-74
2024/04/10 11:53:49;;;;;;;8.40;1.98;;;14.50;55.00;;;;;;4495300;26;20003;-74
2024/04/10 11:55:50;;;;;;;8.00;1.90;;;14.50;55.20;;;;;;4495340;26;19999;-74
2024/04/10 11:57:54;;;;;;;16.63;3.50;;;14.60;55.00;;;;;;4495403;26;20003;-74
2024/04/10 11:59:54;;;;;;;13.15;2.65;;;14.50;53.80;;;;;;4495734;26;20421;-75
2024/04/10 12:02:00;;;;;;;6.40;1.60;;;14.50;55.00;;;;;;4495250;26;20035;-75
2024/04/10 12:04:02;;;;;;;11.50;2.05;;;14.60;54.20;;;;;;4495443;26;19999;-74
2024/04/10 12:06:06;;;;;;;9.05;2.47;;;14.70;53.50;;;;;;4494989;26;20011;-74
2024/04/10 12:08:08;;;;;;;;;;;14.70;54.80;;;;;;4495937;26;20003;-75
2024/04/10 12:10:12;;;;;;;7.60;2.03;;;14.80;54.60;;;;;;4495282;26;19929;-76
2024/04/10 12:12:13;;;;;;;8.40;1.50;;;15.00;55.50;;;;;;4492201;26;19996;-75
2024/04/10 12:14:14;;;;;;;8.05;1.63;;;15.10;52.50;;;;;;4495323;26;20052;-75
2024/04/10 12:16:18;;;;;;;5.60;1.58;;;15.20;52.00;;;;;;4495149;26;20044;-77
2024/04/10 12:18:21;;;;;;;7.57;1.90;;;15.20;50.70;;;;;;4495196;26;20010;-75
2024/04/10 12:20:25;;;;;;;6.55;1.67;;;15.40;49.60;;;;;;4495123;26;19999;-75
2024/04/10 12:22:25;;;;;;;8.80;1.70;;;15.50;50.40;;;;;;4495006;26;20014;-73
2024/04/10 12:24:29;;;;;;;8.85;1.83;;;15.60;49.60;;;;;;4494999;26;20003;-76
2024/04/10 12:26:33;;;;;;;9.93;3.08;;;15.70;51.60;;;;;;4495105;26;20014;-73
2024/04/10 12:28:36;;;;;;;5.38;1.50;;;15.80;48.10;;;;;;4506598;26;20007;-74
2024/04/10 12:30:37;;;;;;;8.55;1.73;;;15.90;49.00;;;;;;4524863;26;19998;-74
2024/04/10 12:32:41;;;;;;;4.78;1.48;;;16.00;50.50;;;;;;4524803;26;20075;-74
2024/04/10 12:34:45;;;;;;;6.65;1.55;;;16.00;47.10;;;;;;4525045;26;20410;-76
2024/04/10 12:39:09;;;;;;;5.68;1.60;;;16.20;48.10;;;;;;4527215;26;20002;-76
2024/04/10 12:41:12;;;;;;;6.97;1.65;;;16.30;49.30;;;;;;4524814;26;20335;-77
2024/04/10 12:43:16;;;;;;;6.40;1.40;;;16.40;47.80;;;;;;4524169;26;20017;-76
2024/04/10 12:45:17;;;;;;;7.68;1.60;;;16.40;46.70;;;;;;4525079;26;20461;-76
2024/04/10 12:47:20;;;;;;;5.50;1.40;;;16.20;46.70;;;;;;4524980;26;20034;-76
2024/04/10 12:49:21;;;;;;;6.40;1.33;;;16.20;46.10;;;;;;4524869;26;20385;-75
2024/04/10 12:51:28;;;;;;;8.23;1.60;;;16.40;46.60;;;;;;4524219;26;20003;-75
2024/04/10 12:53:28;;;;;;;6.57;1.35;;;16.50;45.00;;;;;;4495168;26;20009;-74
2024/04/10 12:55:32;;;;;;;6.78;1.50;;;16.60;45.00;;;;;;4489201;26;20003;-75
2024/04/10 12:57:33;;;;;;;7.13;1.67;;;16.80;45.40;;;;;;4484399;26;20004;-74
2024/04/10 12:59:37;;;;;;;9.63;1.67;;;16.90;44.50;;;;;;4482147;26;20008;-74
2024/04/10 13:01:38;;;;;;;8.23;1.73;;;16.80;43.80;;;;;;4482053;26;20013;-74
2024/04/10 13:03:41;;;;;;;7.70;1.67;;;16.80;44.70;;;;;;4482199;26;20428;-75
2024/04/10 13:05:42;;;;;;;6.85;1.85;;;16.80;44.10;;;;;;4498088;26;20017;-75
2024/04/10 13:07:48;;;;;;;6.32;1.63;;;16.70;44.30;;;;;;4510177;26;20008;-75
2024/04/10 13:09:50;;;;;;;6.97;1.75;;;16.60;44.10;;;;;;4511472;26;19999;-75
2024/04/10 13:11:54;;;;;;;5.63;1.70;;;16.50;43.40;;;;;;4511671;26;20009;-74
2024/04/10 13:13:55;;;;;;;7.78;1.58;;;16.50;44.80;;;;;;4508668;26;20003;-74
2024/04/10 13:16:01;;;;;;;7.43;1.65;;;16.40;44.30;;;;;;4507214;26;20486;-75
2024/04/10 13:18:02;;;;;;;6.13;1.70;;;16.30;45.00;;;;;;4480999;26;19999;-74
2024/04/10 13:20:06;;;;;;;7.68;1.48;;;16.20;44.60;;;;;;4482177;26;20014;-75
2024/04/10 13:22:08;;;;;;;6.70;1.60;;;16.30;47.50;;;;;;4483322;26;20436;-74
2024/04/10 13:24:14;;;;;;;8.43;1.70;;;16.20;47.80;;;;;;4483931;26;20317;-75
2024/04/10 13:26:15;;;;;;;6.88;1.40;;;16.20;47.70;;;;;;4483386;26;20408;-75
2024/04/10 13:28:18;;;;;;;6.22;1.50;;;16.30;45.50;;;;;;4508006;26;20003;-74
2024/04/10 13:30:20;;;;;;;4.55;1.50;;;16.50;44.30;;;;;;4514149;26;20424;-75
2024/04/10 13:32:24;;;;;;;7.25;1.80;;;16.70;44.90;;;;;;4513931;26;20289;-75
2024/04/10 13:34:25;;;;;;;6.47;1.58;;;16.90;43.80;;;;;;4513892;26;19999;-74
2024/04/10 13:36:29;;;;;;;7.43;1.67;;;17.10;42.50;;;;;;4513893;26;20003;-75
2024/04/10 13:38:30;;;;;;;7.28;1.88;;;16.90;43.40;;;;;;4513817;26;20531;-74
2024/04/10 13:40:36;;;;;;;6.97;1.67;;;16.70;42.80;;;;;;4513772;26;20007;-75
2024/04/10 13:42:37;;;;;;;7.28;1.40;;;16.90;43.70;;;;;;4513849;26;20355;-74
2024/04/10 13:44:41;;;;;;;7.78;1.80;;;16.90;43.50;;;;;;4513471;26;20003;-75
2024/04/10 13:46:41;;;;;;;7.95;1.55;;;16.90;41.90;;;;;;4513708;26;20328;-75
2024/04/10 13:48:47;;;;;;;5.25;1.35;;;17.00;42.20;;;;;;4513718;26;20031;-74
2024/04/10 13:50:47;;;;;;;5.53;1.50;;;17.10;42.60;;;;;;4504223;26;20008;-74
2024/04/10 13:52:52;;;;;;;7.25;1.73;;;17.60;42.50;;;;;;4483783;26;20072;-74
2024/04/10 13:54:53;;;;;;;7.22;1.67;;;18.00;40.70;;;;;;4483781;26;20008;-74
2024/04/10 13:56:59;;;;;;;5.68;1.65;;;17.80;40.20;;;;;;4483793;26;20022;-74
2024/04/10 13:59:00;;;;;;;9.77;1.70;;;17.60;39.70;;;;;;4483790;26;20464;-75
2024/04/10 14:01:12;;;;;;;5.18;1.48;;;17.70;39.40;;;;;;4483853;26;20015;-74
2024/04/10 14:03:13;;;;;;;5.72;1.40;;;17.50;39.50;;;;;;4483772;26;20425;-74
2024/04/10 14:05:16;;;;;;;5.53;1.50;;;17.30;38.10;;;;;;4483834;26;20000;-75
2024/04/10 14:07:17;;;;;;;6.93;1.40;;;17.30;39.00;;;;;;4483947;26;20000;-74
2024/04/10 14:09:21;;;;;;;7.30;1.58;;;17.40;39.20;;;;;;4486549;26;20007;-74
2024/04/10 14:11:22;;;;;;;9.32;1.45;;;17.50;40.30;;;;;;4512850;26;20002;-75
2024/04/10 14:13:29;;;;;;;7.25;1.50;;;17.70;40.80;;;;;;4513299;26;19999;-75
2024/04/10 14:15:29;;;;;;;6.40;1.58;;;18.40;42.10;;;;;;4511268;26;20000;-75
2024/04/10 14:17:33;;;;;;;5.68;1.58;;;19.20;41.60;;;;;;4483368;26;20032;-76
2024/04/10 14:19:34;;;;;;;6.18;1.35;;;19.90;39.30;;;;;;4501669;26;20002;-76
2024/04/10 14:21:37;;;;;;;7.15;1.45;;;22.50;35.10;;;;;;4500340;26;20435;-77
2024/04/10 14:23:40;;;;;;;6.03;1.60;;;24.70;30.20;;;;;;4481192;26;20004;-77
2024/04/10 14:25:43;;;;;;;6.43;1.67;;;27.90;27.30;;;;;;4487133;26;20035;-77
2024/04/10 14:27:48;;;;;;;6.90;1.90;;;29.80;25.10;;;;;;4510840;26;20455;-78
2024/04/10 14:29:55;;;;;;;5.38;1.50;;;30.60;23.70;;;;;;4510718;26;19999;-77
2024/04/10 14:31:56;;;;;;;5.10;1.50;;;31.30;23.60;;;;;;4494503;26;20340;-78
2024/04/10 14:34:00;;;;;;;6.25;1.60;;;32.00;23.00;;;;;;4480953;26;20015;-77
2024/04/10 14:36:02;;;;;;;4.97;1.60;;;32.30;22.30;;;;;;4480728;26;20440;-78
2024/04/10 14:38:03;;;;;;;5.57;1.45;;;31.30;21.90;;;;;;4490354;26;20368;-77
2024/04/10 14:40:09;;;;;;;7.30;1.90;;;28.80;22.80;;;;;;4510669;26;20028;-77
2024/04/10 14:42:10;;;;;;;7.30;1.88;;;28.60;25.10;;;;;;4509182;26;20013;-77
2024/04/10 14:46:35;;;;;;;6.00;1.35;;;28.10;23.60;;;;;;4512174;26;20052;-77
2024/04/10 14:48:38;;;;;;;7.13;1.60;;;26.60;23.30;;;;;;4510516;26;20003;-77
2024/04/10 14:50:40;;;;;;;4.15;1.17;;;25.90;24.10;;;;;;4509966;26;20336;-77
2024/04/10 14:52:43;;;;;;;4.78;1.45;;;24.90;24.80;;;;;;4509108;26;20021;-77
2024/04/10 14:54:49;;;;;;;6.53;1.63;;;24.00;26.30;;;;;;4510347;26;20534;-77
2024/04/10 14:56:52;;;;;;;5.50;1.55;;;23.50;26.60;;;;;;4501046;26;20018;-77
2024/04/10 14:58:53;;;;;;;5.13;1.30;;;25.30;25.80;;;;;;4500112;26;20018;-77
2024/04/10 15:00:58;;;;;;;6.30;1.40;;;26.90;24.40;;;;;;4480470;26;20035;-77
2024/04/10 15:03:01;;;;;;;5.22;1.42;;;28.00;23.80;;;;;;4498777;26;20007;-77
2024/04/10 15:05:06;;;;;;;4.65;1.40;;;28.90;22.70;;;;;;4482595;26;20007;-77
2024/04/10 15:07:07;;;;;;;7.28;1.52;;;29.30;22.20;;;;;;4480375;26;20129;-76
2024/04/10 15:09:11;;;;;;;7.03;1.40;;;29.70;22.20;;;;;;4480351;26;20049;-77
2024/04/10 15:11:20;;;;;;;5.53;1.40;;;29.20;21.60;;;;;;4499449;26;20019;-78
2024/04/10 15:13:24;;;;;;;4.40;1.40;;;28.90;22.10;;;;;;4510242;26;20604;-78
2024/04/10 15:15:25;;;;;;;5.88;1.50;;;28.80;23.20;;;;;;4502675;26;20004;-78
2024/04/10 15:17:28;;;;;;;7.38;1.70;;;27.90;23.40;;;;;;4480375;26;20050;-78
2024/04/10 15:19:33;;;;;;;6.10;1.40;;;26.80;23.80;;;;;;4476886;26;20004;-77
2024/04/10 15:21:37;;;;;;;5.97;1.63;;;26.40;25.10;;;;;;4480626;26;20010;-79
2024/04/10 15:23:39;;;;;;;4.65;1.20;;;26.00;25.60;;;;;;4480120;26;20011;-76
2024/04/10 15:25:54;;;;;;;5.60;1.40;;;25.20;25.90;;;;;;4482106;26;20012;-76
2024/04/10 15:27:57;;;;;;;6.60;1.63;;;24.30;26.40;;;;;;4479043;26;20015;-75
2024/04/10 15:30:00;;;;;;;4.10;1.40;;;23.80;27.40;;;;;;4494328;26;20164;-75
2024/04/10 15:32:01;;;;;;;7.05;1.83;;;23.30;27.40;;;;;;4508646;26;20455;-74
2024/04/10 15:34:04;;;;;;;7.10;1.90;;;22.70;28.20;;;;;;4484614;26;20063;-76
2024/04/10 15:36:10;;;;;;;6.63;2.00;;;22.30;29.20;;;;;;4504474;26;20433;-75
2024/04/10 15:38:13;;;;;;;;;;;22.00;29.70;;;;;;4510394;26;20332;-75
2024/04/10 15:40:15;;;;;;;8.15;1.75;;;21.80;29.60;;;;;;4496385;26;19931;-75
2024/04/10 15:42:18;;;;;;;6.75;1.50;;;21.50;30.00;;;;;;4479979;26;20016;-75
2024/04/10 15:44:24;;;;;;;4.78;1.50;;;21.30;30.20;;;;;;4481042;26;20007;-77
2024/04/10 15:46:27;;;;;;;6.35;1.70;;;21.00;30.80;;;;;;4480928;26;20469;-75
2024/04/10 15:48:29;;;;;;;8.98;1.58;;;20.80;30.80;;;;;;4509617;26;19999;-74
2024/04/10 15:50:32;;;;;;;9.00;1.70;;;20.60;32.10;;;;;;4494049;26;20007;-78
2024/04/10 15:52:36;;;;;;;6.20;1.38;;;20.50;32.20;;;;;;4480992;26;20015;-77
2024/04/10 15:54:40;;;;;;;6.10;1.45;;;20.40;32.10;;;;;;4493963;26;20008;-75